Hertfordshire — ZDJS5 — position and weather

sailwx.info

Track history (hours):
 
Tides and Currents Weather Stations Pressure Air Temp Water Temp Dewpoint Dewpoint Depression Visibility Wind Speed Wind Dir Waves Ship Positions

Hertfordshire

Last reported at 2014-Dec-22 07:33 UTC. Time now 2014-Dec-22 07:50 UTC.
Position N 51°48' E 004°38'.

Length 83 m; draft 3.5 m.

Type: Cargo ship. MMSI: 236563000.

Date/timePositionNaut miles runAvg speedWind from/ knotsBaromVisibWave heightAir tempDewpointWater temp
2014-Dec-22 07:33N 51°48' E 004°38'0 0.0
2014-Dec-22 06:30N 51°48' E 004°38'0 0.0
2014-Dec-22 05:33N 51°48' E 004°38'4 4.1
2014-Dec-22 04:33N 51°50' E 004°33'9 8.9
2014-Dec-22 03:32N 51°52' E 004°18'3 3.0
2014-Dec-22 02:31N 51°53' E 004°14'0 0.0
2014-Dec-22 01:31N 51°53' E 004°14'0 0.4
2014-Dec-22 00:33N 51°54' E 004°14'8 8.3
2014-Dec-21 23:33N 51°59' E 004°04'9 9.4
2014-Dec-21 22:33N 52°04' E 003°51'9 8.4
2014-Dec-21 21:33N 52°12' E 003°46'8 7.6
2014-Dec-21 20:32N 52°20' E 003°48'5 5.6
2014-Dec-21 19:33N 52°24' E 003°54'5 5.3
2014-Dec-21 18:33N 52°25' E 004°02'5 5.1
2014-Dec-21 17:34N 52°27' E 004°10'5 4.8
2014-Dec-21 16:33N 52°27' E 004°18'5 5.0
2014-Dec-21 15:34N 52°29' E 004°26'6 5.7
2014-Dec-21 14:33N 52°28' E 004°35'2 2.2
2014-Dec-21 13:33N 52°28' E 004°39'0 0.0
2014-Dec-21 12:32N 52°28' E 004°39'0 0.0
2014-Dec-21 11:31N 52°28' E 004°39'0 0.0
2014-Dec-21 10:32N 52°28' E 004°39'0 0.0
2014-Dec-21 09:29N 52°28' E 004°39'0 0.0
2014-Dec-21 08:32N 52°28' E 004°39'0 0.0
2014-Dec-21 07:32N 52°28' E 004°39'0 0.0
2014-Dec-21 06:32N 52°28' E 004°39'0 0.0
2014-Dec-21 05:32N 52°28' E 004°39'0 0.0
2014-Dec-21 04:32N 52°28' E 004°39'0 0.0
2014-Dec-21 03:32N 52°28' E 004°39'0 0.0
2014-Dec-21 02:32N 52°28' E 004°39'0 0.0
2014-Dec-21 01:32N 52°28' E 004°39'0 0.0
2014-Dec-21 00:32N 52°28' E 004°39'0 0.0
2014-Dec-20 23:32N 52°28' E 004°39'0 0.0
2014-Dec-20 22:32N 52°28' E 004°39'0 0.0
2014-Dec-20 21:32N 52°28' E 004°39'0 0.0
2014-Dec-20 20:32N 52°28' E 004°39'0 0.0
2014-Dec-20 19:32N 52°28' E 004°39'0 0.0
2014-Dec-20 18:32N 52°28' E 004°39'0 0.0
2014-Dec-20 17:32N 52°28' E 004°39'0 0.0
2014-Dec-20 16:32N 52°28' E 004°39'2 1.8
2014-Dec-20 15:33N 52°28' E 004°36'5 4.8
2014-Dec-20 14:34N 52°28' E 004°28'1110.7
2014-Dec-20 13:33N 52°28' E 004°11'1111.1
2014-Dec-20 12:33N 52°27' E 003°52'6510.6
2014-Dec-20 06:29N 52°39' E 002°08'1010.6
2014-Dec-20 05:33N 52°44' E 001°54'1312.6
2014-Dec-20 04:34N 52°51' E 001°37'1312.5
2014-Dec-20 03:33N 52°58' E 001°19'1211.5
2014-Dec-20 02:33N 53°04' E 001°04'3110.3
2014-Dec-19 23:33N 53°29' E 000°34'1010.0
2014-Dec-19 22:33N 53°39' E 000°29'1010.2
2014-Dec-19 21:33N 53°48' E 000°21'1010.1
2014-Dec-19 20:34N 53°57' E 000°13'10 9.6
2014-Dec-19 19:34N 54°06' E 000°06'10 9.9
2014-Dec-19 18:33N 54°14' W 000°04'1010.3
2014-Dec-19 17:34N 54°22' W 000°15'1110.7
2014-Dec-19 16:33N 54°30' W 000°27'1311.1
2014-Dec-19 15:26N 54°36' W 000°46'1011.6
2014-Dec-19 14:33N 54°40' W 001°02'6 5.5
2014-Dec-19 13:31N 54°42' W 001°12'0 0.0
2014-Dec-19 12:22N 54°42' W 001°12'0 0.0
2014-Dec-19 11:19N 54°42' W 001°12'0 0.0
2014-Dec-19 10:22N 54°42' W 001°12'0 0.0
2014-Dec-19 09:19N 54°42' W 001°12'0 0.0
2014-Dec-19 08:22N 54°42' W 001°12'0 0.0
2014-Dec-19 07:25N 54°42' W 001°12'0 0.0
2014-Dec-19 06:28N 54°42' W 001°12'0 0.0
2014-Dec-19 05:31N 54°42' W 001°12'0 0.0
2014-Dec-19 04:31N 54°42' W 001°12'0 0.0
2014-Dec-19 03:31N 54°42' W 001°12'0 0.0
2014-Dec-19 02:31N 54°42' W 001°12'0 0.0
2014-Dec-19 01:31N 54°42' W 001°12'0 0.0
2014-Dec-19 00:32N 54°42' W 001°12'8 8.3
2014-Dec-18 23:32N 54°39' W 000°58'1010.1
2014-Dec-18 22:33N 54°35' W 000°42'1010.3
2014-Dec-18 21:34N 54°30' W 000°27'1110.9
2014-Dec-18 20:34N 54°21' W 000°16'1111.2
2014-Dec-18 19:33N 54°13' W 000°03'1111.5
2014-Dec-18 18:34N 54°03' E 000°08'1111.2
2014-Dec-18 17:33N 53°53' E 000°16'1110.9
2014-Dec-18 16:34N 53°43' E 000°24'1010.3
2014-Dec-18 15:34N 53°34' E 000°32'38 9.5
2014-Dec-18 11:33N 53°02' E 001°07'1211.8
2014-Dec-18 10:33N 52°56' E 001°23'1212.4
2014-Dec-18 09:33N 52°48' E 001°39'1212.3
2014-Dec-18 08:33N 52°38' E 001°51'1110.9
2014-Dec-18 07:34N 52°27' E 001°52'1210.3
2014-Dec-18 06:25N 52°16' E 001°45'8 9.5
2014-Dec-18 05:34N 52°09' E 001°41'9 9.0
2014-Dec-18 04:34N 52°00' E 001°36'10 9.5
2014-Dec-18 03:34N 51°51' E 001°30'1110.5
2014-Dec-18 02:33N 51°42' E 001°21'1211.5
2014-Dec-18 01:32N 51°34' E 001°08'1111.6
2014-Dec-18 00:34N 51°29' E 000°51'1313.2
2014-Dec-17 23:34N 51°30' E 000°30'10 9.9
2014-Dec-17 22:33N 51°28' E 000°14'3 2.7
2014-Dec-17 21:31N 51°30' E 000°10'0 0.0
2014-Dec-17 20:31N 51°30' E 000°10'0 0.0
2014-Dec-17 19:31N 51°30' E 000°10'0 0.0
2014-Dec-17 18:31N 51°30' E 000°10'0 0.0
2014-Dec-17 17:31N 51°30' E 000°10'0 0.0
2014-Dec-17 16:31N 51°30' E 000°10'0 0.0
2014-Dec-17 15:31N 51°30' E 000°10'0 0.0
2014-Dec-17 14:31N 51°30' E 000°10'0 0.0
2014-Dec-17 13:31N 51°30' E 000°10'0 0.0
2014-Dec-17 12:31N 51°30' E 000°10'0 0.0
2014-Dec-17 11:31N 51°30' E 000°10'0 0.0
2014-Dec-17 10:31N 51°30' E 000°10'0 0.0
2014-Dec-17 09:31N 51°30' E 000°10'0 0.0
2014-Dec-17 08:31N 51°30' E 000°10'0 0.0
2014-Dec-17 07:31N 51°30' E 000°10'0 0.0
2014-Dec-17 06:31N 51°30' E 000°10'0 0.0
2014-Dec-17 05:31N 51°30' E 000°10'0 0.0
2014-Dec-17 04:31N 51°30' E 000°10'0 0.0
2014-Dec-17 03:33N 51°30' E 000°10'7 7.4
2014-Dec-17 02:34N 51°27' E 000°22'8 7.8
2014-Dec-17 01:33N 51°30' E 000°33'9 8.7
2014-Dec-17 00:33N 51°29' E 000°47'7 6.8
2014-Dec-16 23:33N 51°30' E 000°58'0 0.4
2014-Dec-16 22:32N 51°30' E 000°58'0 0.0
2014-Dec-16 21:29N 51°30' E 000°58'0 0.0
2014-Dec-16 20:32N 51°30' E 000°58'0 0.0
2014-Dec-16 19:32N 51°30' E 000°58'0 0.1
2014-Dec-16 18:32N 51°30' E 000°58'0 0.0
2014-Dec-16 17:29N 51°30' E 000°58'0 0.0
2014-Dec-16 16:32N 51°30' E 000°58'0 0.0
2014-Dec-16 15:32N 51°30' E 000°58'0 0.1
2014-Dec-16 14:23N 51°30' E 000°58'0 0.0
2014-Dec-16 13:32N 51°30' E 000°58'0 0.0
2014-Dec-16 12:32N 51°30' E 000°58'0 0.0
2014-Dec-16 11:32N 51°30' E 000°58'0 0.0
2014-Dec-16 10:32N 51°30' E 000°58'0 0.0
2014-Dec-16 09:32N 51°30' E 000°58'0 0.0
2014-Dec-16 08:32N 51°30' E 000°58'0 0.0
2014-Dec-16 07:32N 51°30' E 000°58'0 0.0
2014-Dec-16 06:29N 51°30' E 000°58'0 0.1
2014-Dec-16 05:23N 51°30' E 000°58'0 0.0
2014-Dec-16 04:23N 51°30' E 000°58'0 0.0
2014-Dec-16 03:32N 51°30' E 000°58'0 0.1
2014-Dec-16 01:05N 51°30' E 000°58'0 0.0
2014-Dec-15 23:32N 51°30' E 000°58'0 0.0
2014-Dec-15 22:32N 51°30' E 000°58'0 0.0
2014-Dec-15 21:32N 51°30' E 000°58'0 0.0
2014-Dec-15 20:26N 51°30' E 000°58'0 0.0
2014-Dec-15 19:26N 51°30' E 000°58'0 0.0
2014-Dec-15 18:32N 51°30' E 000°58'0 0.1
2014-Dec-15 17:29N 51°30' E 000°58'0 0.0
2014-Dec-15 16:32N 51°30' E 000°58'0 0.0
2014-Dec-15 15:32N 51°30' E 000°58'0 0.0
2014-Dec-15 14:32N 51°30' E 000°58'0 0.1
2014-Dec-15 13:32N 51°30' E 000°58'0 0.1
2014-Dec-15 12:32N 51°30' E 000°58'0 0.0
2014-Dec-15 11:32N 51°30' E 000°58'0 0.0
2014-Dec-15 10:32N 51°30' E 000°58'0 0.0
2014-Dec-15 09:32N 51°30' E 000°58'0 0.0
2014-Dec-15 08:32N 51°30' E 000°58'0 0.0
2014-Dec-15 07:29N 51°30' E 000°58'0 0.0
2014-Dec-15 06:32N 51°30' E 000°58'0 0.0
2014-Dec-15 05:32N 51°30' E 000°58'0 0.1
2014-Dec-15 04:32N 51°30' E 000°58'0 0.0
2014-Dec-15 03:29N 51°30' E 000°58'0 0.1
2014-Dec-15 02:32N 51°30' E 000°58'0 0.0
2014-Dec-15 01:32N 51°30' E 000°58'0 0.1
2014-Dec-15 00:32N 51°30' E 000°58'0 0.0
2014-Dec-14 23:32N 51°30' E 000°58'0 0.0
2014-Dec-14 22:32N 51°30' E 000°58'0 0.0
2014-Dec-14 21:32N 51°30' E 000°58'0 0.0
2014-Dec-14 20:32N 51°30' E 000°58'0 0.0
2014-Dec-14 19:32N 51°30' E 000°58'0 0.0
2014-Dec-14 18:29N 51°30' E 000°58'0 0.0
2014-Dec-14 17:32N 51°30' E 000°58'0 0.1
2014-Dec-14 16:29N 51°30' E 000°58'0 0.0
2014-Dec-14 15:26N 51°30' E 000°58'0 0.0
2014-Dec-14 14:32N 51°30' E 000°58'0 0.1
2014-Dec-14 13:26N 51°30' E 000°58'0 0.0
2014-Dec-14 12:29N 51°30' E 000°58'0 0.0
2014-Dec-14 11:32N 51°30' E 000°58'0 0.0
2014-Dec-14 10:32N 51°30' E 000°58'0 0.0
2014-Dec-14 09:32N 51°30' E 000°58'0 0.0
2014-Dec-14 08:32N 51°30' E 000°58'0 0.0
2014-Dec-14 07:32N 51°30' E 000°58'0 0.0
2014-Dec-14 06:32N 51°30' E 000°58'0 0.0
2014-Dec-14 05:32N 51°30' E 000°58'0 0.1
2014-Dec-14 04:29N 51°30' E 000°58'0 0.0
2014-Dec-14 03:32N 51°30' E 000°58'0 0.0
2014-Dec-14 02:32N 51°30' E 000°58'0 0.0
2014-Dec-14 01:29N 51°30' E 000°58'0 0.0
2014-Dec-14 00:29N 51°30' E 000°58'0 0.1
2014-Dec-13 23:29N 51°30' E 000°58'0 0.0
2014-Dec-13 22:29N 51°30' E 000°58'0 0.0
2014-Dec-13 21:29N 51°30' E 000°58'0 0.0
2014-Dec-13 20:32N 51°30' E 000°58'0 0.0
2014-Dec-13 19:32N 51°30' E 000°58'0 0.0
2014-Dec-13 18:32N 51°30' E 000°58'0 0.0
2014-Dec-13 17:32N 51°30' E 000°58'0 0.1
2014-Dec-13 16:32N 51°30' E 000°58'0 0.1
2014-Dec-13 15:33N 51°30' E 000°58'1010.4
2014-Dec-13 14:33N 51°36' E 001°12'1111.5
2014-Dec-13 13:33N 51°44' E 001°25'1211.8
2014-Dec-13 12:33N 51°52' E 001°40'1211.5
2014-Dec-13 11:33N 52°03' E 001°46'1111.5
2014-Dec-13 10:33N 52°14' E 001°49'1110.7
2014-Dec-13 09:33N 52°25' E 001°51'10 9.6
2014-Dec-13 08:33N 52°34' E 001°53'8 8.5
2014-Dec-13 07:33N 52°42' E 001°55'8 7.7
2014-Dec-13 06:33N 52°48' E 001°45'8 8.3
2014-Dec-13 05:33N 52°52' E 001°34'8 8.2
2014-Dec-13 04:33N 52°57' E 001°22'9 8.8
2014-Dec-13 03:33N 53°01' E 001°10'32 9.4
2014-Dec-13 00:12N 53°26' E 000°36'610.0
2014-Dec-12 23:33N 53°32' E 000°33'1010.2
2014-Dec-12 22:34N 53°41' E 000°27'1110.5
2014-Dec-12 21:33N 53°51' E 000°18'10 9.6
2014-Dec-12 20:33N 53°59' E 000°10'10 9.7
2014-Dec-12 19:33N 54°08' E 000°04'1010.2
2014-Dec-12 18:33N 54°16' W 000°08'10 9.8
2014-Dec-12 17:33N 54°23' W 000°19'10 9.5
2014-Dec-12 16:33N 54°30' W 000°29'9 9.1
2014-Dec-12 15:33N 54°37' W 000°40'10 8.7
2014-Dec-12 14:24N 54°45' W 000°51'7 8.6
2014-Dec-12 13:34N 54°51' W 000°59'10 8.6
2014-Dec-12 12:27N 54°58' W 001°10'8 8.4
2014-Dec-12 11:33N 55°05' W 001°15'  
Track history (hours):
 
Tides and Currents Weather Stations Pressure Air Temp Water Temp Dewpoint Dewpoint Depression Visibility Wind Speed Wind Dir Waves Ship Positions

Hertfordshire

Last reported at 2014-Dec-22 07:33 UTC. Time now 2014-Dec-22 07:50 UTC.
Position N 51°48' E 004°38'.

Length 83 m; draft 3.5 m.

Type: Cargo ship. MMSI: 236563000.

Date/timePositionNaut miles runAvg speedWind from/ knotsBaromVisibWave heightAir tempDewpointWater temp
2014-Dec-22 07:33N 51°48' E 004°38'0 0.0
2014-Dec-22 06:30N 51°48' E 004°38'0 0.0
2014-Dec-22 05:33N 51°48' E 004°38'4 4.1
2014-Dec-22 04:33N 51°50' E 004°33'9 8.9
2014-Dec-22 03:32N 51°52' E 004°18'3 3.0
2014-Dec-22 02:31N 51°53' E 004°14'0 0.0
2014-Dec-22 01:31N 51°53' E 004°14'0 0.4
2014-Dec-22 00:33N 51°54' E 004°14'8 8.3
2014-Dec-21 23:33N 51°59' E 004°04'9 9.4
2014-Dec-21 22:33N 52°04' E 003°51'9 8.4
2014-Dec-21 21:33N 52°12' E 003°46'8 7.6
2014-Dec-21 20:32N 52°20' E 003°48'5 5.6
2014-Dec-21 19:33N 52°24' E 003°54'5 5.3
2014-Dec-21 18:33N 52°25' E 004°02'5 5.1
2014-Dec-21 17:34N 52°27' E 004°10'5 4.8
2014-Dec-21 16:33N 52°27' E 004°18'5 5.0
2014-Dec-21 15:34N 52°29' E 004°26'6 5.7
2014-Dec-21 14:33N 52°28' E 004°35'2 2.2
2014-Dec-21 13:33N 52°28' E 004°39'0 0.0
2014-Dec-21 12:32N 52°28' E 004°39'0 0.0
2014-Dec-21 11:31N 52°28' E 004°39'0 0.0
2014-Dec-21 10:32N 52°28' E 004°39'0 0.0
2014-Dec-21 09:29N 52°28' E 004°39'0 0.0
2014-Dec-21 08:32N 52°28' E 004°39'0 0.0
2014-Dec-21 07:32N 52°28' E 004°39'0 0.0
2014-Dec-21 06:32N 52°28' E 004°39'0 0.0
2014-Dec-21 05:32N 52°28' E 004°39'0 0.0
2014-Dec-21 04:32N 52°28' E 004°39'0 0.0
2014-Dec-21 03:32N 52°28' E 004°39'0 0.0
2014-Dec-21 02:32N 52°28' E 004°39'0 0.0
2014-Dec-21 01:32N 52°28' E 004°39'0 0.0
2014-Dec-21 00:32N 52°28' E 004°39'0 0.0
2014-Dec-20 23:32N 52°28' E 004°39'0 0.0
2014-Dec-20 22:32N 52°28' E 004°39'0 0.0
2014-Dec-20 21:32N 52°28' E 004°39'0 0.0
2014-Dec-20 20:32N 52°28' E 004°39'0 0.0
2014-Dec-20 19:32N 52°28' E 004°39'0 0.0
2014-Dec-20 18:32N 52°28' E 004°39'0 0.0
2014-Dec-20 17:32N 52°28' E 004°39'0 0.0
2014-Dec-20 16:32N 52°28' E 004°39'2 1.8
2014-Dec-20 15:33N 52°28' E 004°36'5 4.8
2014-Dec-20 14:34N 52°28' E 004°28'1110.7
2014-Dec-20 13:33N 52°28' E 004°11'1111.1
2014-Dec-20 12:33N 52°27' E 003°52'6510.6
2014-Dec-20 06:29N 52°39' E 002°08'1010.6
2014-Dec-20 05:33N 52°44' E 001°54'1312.6
2014-Dec-20 04:34N 52°51' E 001°37'1312.5
2014-Dec-20 03:33N 52°58' E 001°19'1211.5
2014-Dec-20 02:33N 53°04' E 001°04'3110.3
2014-Dec-19 23:33N 53°29' E 000°34'1010.0
2014-Dec-19 22:33N 53°39' E 000°29'1010.2
2014-Dec-19 21:33N 53°48' E 000°21'1010.1
2014-Dec-19 20:34N 53°57' E 000°13'10 9.6
2014-Dec-19 19:34N 54°06' E 000°06'10 9.9
2014-Dec-19 18:33N 54°14' W 000°04'1010.3
2014-Dec-19 17:34N 54°22' W 000°15'1110.7
2014-Dec-19 16:33N 54°30' W 000°27'1311.1
2014-Dec-19 15:26N 54°36' W 000°46'1011.6
2014-Dec-19 14:33N 54°40' W 001°02'6 5.5
2014-Dec-19 13:31N 54°42' W 001°12'0 0.0
2014-Dec-19 12:22N 54°42' W 001°12'0 0.0
2014-Dec-19 11:19N 54°42' W 001°12'0 0.0
2014-Dec-19 10:22N 54°42' W 001°12'0 0.0
2014-Dec-19 09:19N 54°42' W 001°12'0 0.0
2014-Dec-19 08:22N 54°42' W 001°12'0 0.0
2014-Dec-19 07:25N 54°42' W 001°12'0 0.0
2014-Dec-19 06:28N 54°42' W 001°12'0 0.0
2014-Dec-19 05:31N 54°42' W 001°12'0 0.0
2014-Dec-19 04:31N 54°42' W 001°12'0 0.0
2014-Dec-19 03:31N 54°42' W 001°12'0 0.0
2014-Dec-19 02:31N 54°42' W 001°12'0 0.0
2014-Dec-19 01:31N 54°42' W 001°12'0 0.0
2014-Dec-19 00:32N 54°42' W 001°12'8 8.3
2014-Dec-18 23:32N 54°39' W 000°58'1010.1
2014-Dec-18 22:33N 54°35' W 000°42'1010.3
2014-Dec-18 21:34N 54°30' W 000°27'1110.9
2014-Dec-18 20:34N 54°21' W 000°16'1111.2
2014-Dec-18 19:33N 54°13' W 000°03'1111.5
2014-Dec-18 18:34N 54°03' E 000°08'1111.2
2014-Dec-18 17:33N 53°53' E 000°16'1110.9
2014-Dec-18 16:34N 53°43' E 000°24'1010.3
2014-Dec-18 15:34N 53°34' E 000°32'38 9.5
2014-Dec-18 11:33N 53°02' E 001°07'1211.8
2014-Dec-18 10:33N 52°56' E 001°23'1212.4
2014-Dec-18 09:33N 52°48' E 001°39'1212.3
2014-Dec-18 08:33N 52°38' E 001°51'1110.9
2014-Dec-18 07:34N 52°27' E 001°52'1210.3
2014-Dec-18 06:25N 52°16' E 001°45'8 9.5
2014-Dec-18 05:34N 52°09' E 001°41'9 9.0
2014-Dec-18 04:34N 52°00' E 001°36'10 9.5
2014-Dec-18 03:34N 51°51' E 001°30'1110.5
2014-Dec-18 02:33N 51°42' E 001°21'1211.5
2014-Dec-18 01:32N 51°34' E 001°08'1111.6
2014-Dec-18 00:34N 51°29' E 000°51'1313.2
2014-Dec-17 23:34N 51°30' E 000°30'10 9.9
2014-Dec-17 22:33N 51°28' E 000°14'3 2.7
2014-Dec-17 21:31N 51°30' E 000°10'0 0.0
2014-Dec-17 20:31N 51°30' E 000°10'0 0.0
2014-Dec-17 19:31N 51°30' E 000°10'0 0.0
2014-Dec-17 18:31N 51°30' E 000°10'0 0.0
2014-Dec-17 17:31N 51°30' E 000°10'0 0.0
2014-Dec-17 16:31N 51°30' E 000°10'0 0.0
2014-Dec-17 15:31N 51°30' E 000°10'0 0.0
2014-Dec-17 14:31N 51°30' E 000°10'0 0.0
2014-Dec-17 13:31N 51°30' E 000°10'0 0.0
2014-Dec-17 12:31N 51°30' E 000°10'0 0.0
2014-Dec-17 11:31N 51°30' E 000°10'0 0.0
2014-Dec-17 10:31N 51°30' E 000°10'0 0.0
2014-Dec-17 09:31N 51°30' E 000°10'0 0.0
2014-Dec-17 08:31N 51°30' E 000°10'0 0.0
2014-Dec-17 07:31N 51°30' E 000°10'0 0.0
2014-Dec-17 06:31N 51°30' E 000°10'0 0.0
2014-Dec-17 05:31N 51°30' E 000°10'0 0.0
2014-Dec-17 04:31N 51°30' E 000°10'0 0.0
2014-Dec-17 03:33N 51°30' E 000°10'7 7.4
2014-Dec-17 02:34N 51°27' E 000°22'8 7.8
2014-Dec-17 01:33N 51°30' E 000°33'9 8.7
2014-Dec-17 00:33N 51°29' E 000°47'7 6.8
2014-Dec-16 23:33N 51°30' E 000°58'0 0.4
2014-Dec-16 22:32N 51°30' E 000°58'0 0.0
2014-Dec-16 21:29N 51°30' E 000°58'0 0.0
2014-Dec-16 20:32N 51°30' E 000°58'0 0.0
2014-Dec-16 19:32N 51°30' E 000°58'0 0.1
2014-Dec-16 18:32N 51°30' E 000°58'0 0.0
2014-Dec-16 17:29N 51°30' E 000°58'0 0.0
2014-Dec-16 16:32N 51°30' E 000°58'0 0.0
2014-Dec-16 15:32N 51°30' E 000°58'0 0.1
2014-Dec-16 14:23N 51°30' E 000°58'0 0.0
2014-Dec-16 13:32N 51°30' E 000°58'0 0.0
2014-Dec-16 12:32N 51°30' E 000°58'0 0.0
2014-Dec-16 11:32N 51°30' E 000°58'0 0.0
2014-Dec-16 10:32N 51°30' E 000°58'0 0.0
2014-Dec-16 09:32N 51°30' E 000°58'0 0.0
2014-Dec-16 08:32N 51°30' E 000°58'0 0.0
2014-Dec-16 07:32N 51°30' E 000°58'0 0.0
2014-Dec-16 06:29N 51°30' E 000°58'0 0.1
2014-Dec-16 05:23N 51°30' E 000°58'0 0.0
2014-Dec-16 04:23N 51°30' E 000°58'0 0.0
2014-Dec-16 03:32N 51°30' E 000°58'0 0.1
2014-Dec-16 01:05N 51°30' E 000°58'0 0.0
2014-Dec-15 23:32N 51°30' E 000°58'0 0.0
2014-Dec-15 22:32N 51°30' E 000°58'0 0.0
2014-Dec-15 21:32N 51°30' E 000°58'0 0.0
2014-Dec-15 20:26N 51°30' E 000°58'0 0.0
2014-Dec-15 19:26N 51°30' E 000°58'0 0.0
2014-Dec-15 18:32N 51°30' E 000°58'0 0.1
2014-Dec-15 17:29N 51°30' E 000°58'0 0.0
2014-Dec-15 16:32N 51°30' E 000°58'0 0.0
2014-Dec-15 15:32N 51°30' E 000°58'0 0.0
2014-Dec-15 14:32N 51°30' E 000°58'0 0.1
2014-Dec-15 13:32N 51°30' E 000°58'0 0.1
2014-Dec-15 12:32N 51°30' E 000°58'0 0.0
2014-Dec-15 11:32N 51°30' E 000°58'0 0.0
2014-Dec-15 10:32N 51°30' E 000°58'0 0.0
2014-Dec-15 09:32N 51°30' E 000°58'0 0.0
2014-Dec-15 08:32N 51°30' E 000°58'0 0.0
2014-Dec-15 07:29N 51°30' E 000°58'0 0.0
2014-Dec-15 06:32N 51°30' E 000°58'0 0.0
2014-Dec-15 05:32N 51°30' E 000°58'0 0.1
2014-Dec-15 04:32N 51°30' E 000°58'0 0.0
2014-Dec-15 03:29N 51°30' E 000°58'0 0.1
2014-Dec-15 02:32N 51°30' E 000°58'0 0.0
2014-Dec-15 01:32N 51°30' E 000°58'0 0.1
2014-Dec-15 00:32N 51°30' E 000°58'0 0.0
2014-Dec-14 23:32N 51°30' E 000°58'0 0.0
2014-Dec-14 22:32N 51°30' E 000°58'0 0.0
2014-Dec-14 21:32N 51°30' E 000°58'0 0.0
2014-Dec-14 20:32N 51°30' E 000°58'0 0.0
2014-Dec-14 19:32N 51°30' E 000°58'0 0.0
2014-Dec-14 18:29N 51°30' E 000°58'0 0.0
2014-Dec-14 17:32N 51°30' E 000°58'0 0.1
2014-Dec-14 16:29N 51°30' E 000°58'0 0.0
2014-Dec-14 15:26N 51°30' E 000°58'0 0.0
2014-Dec-14 14:32N 51°30' E 000°58'0 0.1
2014-Dec-14 13:26N 51°30' E 000°58'0 0.0
2014-Dec-14 12:29N 51°30' E 000°58'0 0.0
2014-Dec-14 11:32N 51°30' E 000°58'0 0.0
2014-Dec-14 10:32N 51°30' E 000°58'0 0.0
2014-Dec-14 09:32N 51°30' E 000°58'0 0.0
2014-Dec-14 08:32N 51°30' E 000°58'0 0.0
2014-Dec-14 07:32N 51°30' E 000°58'0 0.0
2014-Dec-14 06:32N 51°30' E 000°58'0 0.0
2014-Dec-14 05:32N 51°30' E 000°58'0 0.1
2014-Dec-14 04:29N 51°30' E 000°58'0 0.0
2014-Dec-14 03:32N 51°30' E 000°58'0 0.0
2014-Dec-14 02:32N 51°30' E 000°58'0 0.0
2014-Dec-14 01:29N 51°30' E 000°58'0 0.0
2014-Dec-14 00:29N 51°30' E 000°58'0 0.1
2014-Dec-13 23:29N 51°30' E 000°58'0 0.0
2014-Dec-13 22:29N 51°30' E 000°58'0 0.0
2014-Dec-13 21:29N 51°30' E 000°58'0 0.0
2014-Dec-13 20:32N 51°30' E 000°58'0 0.0
2014-Dec-13 19:32N 51°30' E 000°58'0 0.0
2014-Dec-13 18:32N 51°30' E 000°58'0 0.0
2014-Dec-13 17:32N 51°30' E 000°58'0 0.1
2014-Dec-13 16:32N 51°30' E 000°58'0 0.1
2014-Dec-13 15:33N 51°30' E 000°58'1010.4
2014-Dec-13 14:33N 51°36' E 001°12'1111.5
2014-Dec-13 13:33N 51°44' E 001°25'1211.8
2014-Dec-13 12:33N 51°52' E 001°40'1211.5
2014-Dec-13 11:33N 52°03' E 001°46'1111.5
2014-Dec-13 10:33N 52°14' E 001°49'1110.7
2014-Dec-13 09:33N 52°25' E 001°51'10 9.6
2014-Dec-13 08:33N 52°34' E 001°53'8 8.5
2014-Dec-13 07:33N 52°42' E 001°55'8 7.7
2014-Dec-13 06:33N 52°48' E 001°45'8 8.3
2014-Dec-13 05:33N 52°52' E 001°34'8 8.2
2014-Dec-13 04:33N 52°57' E 001°22'9 8.8
2014-Dec-13 03:33N 53°01' E 001°10'32 9.4
2014-Dec-13 00:12N 53°26' E 000°36'610.0
2014-Dec-12 23:33N 53°32' E 000°33'1010.2
2014-Dec-12 22:34N 53°41' E 000°27'1110.5
2014-Dec-12 21:33N 53°51' E 000°18'10 9.6
2014-Dec-12 20:33N 53°59' E 000°10'10 9.7
2014-Dec-12 19:33N 54°08' E 000°04'1010.2
2014-Dec-12 18:33N 54°16' W 000°08'10 9.8
2014-Dec-12 17:33N 54°23' W 000°19'10 9.5
2014-Dec-12 16:33N 54°30' W 000°29'9 9.1
2014-Dec-12 15:33N 54°37' W 000°40'10 8.7
2014-Dec-12 14:24N 54°45' W 000°51'7 8.6
2014-Dec-12 13:34N 54°51' W 000°59'10 8.6
2014-Dec-12 12:27N 54°58' W 001°10'8 8.4
2014-Dec-12 11:33N 55°05' W 001°15'  

Dump ship's entire track history